sensor_id;sensor_type;location;lat;lon;timestamp;pressure;altitude;pressure_sealevel;temperature;humidity
9277;BME280;4676;42.678;23.244;2024-01-30T00:00:19;95972.31;;;-0.87;100.00
9277;BME280;4676;42.678;23.244;2024-01-30T00:02:46;95971.34;;;-0.92;100.00
9277;BME280;4676;42.678;23.244;2024-01-30T00:05:13;95982.44;;;-0.82;100.00
9277;BME280;4676;42.678;23.244;2024-01-30T00:07:44;95992.56;;;-0.78;100.00
9277;BME280;4676;42.678;23.244;2024-01-30T00:10:11;95986.66;;;-0.80;100.00
9277;BME280;4676;42.678;23.244;2024-01-30T00:12:38;95990.53;;;-0.88;100.00
9277;BME280;4676;42.678;23.244;2024-01-30T00:15:05;95987.81;;;-0.95;100.00
9277;BME280;4676;42.678;23.244;2024-01-30T00:17:35;95991.88;;;-0.97;100.00
9277;BME280;4676;42.678;23.244;2024-01-30T00:20:01;95983.50;;;-0.99;100.00
9277;BME280;4676;42.678;23.244;2024-01-30T00:22:30;95987.81;;;-0.95;100.00
9277;BME280;4676;42.678;23.244;2024-01-30T00:24:58;96003.81;;;-0.87;100.00
9277;BME280;4676;42.678;23.244;2024-01-30T00:27:25;95992.06;;;-0.91;100.00
9277;BME280;4676;42.678;23.244;2024-01-30T00:29:53;95987.50;;;-0.79;100.00
9277;BME280;4676;42.678;23.244;2024-01-30T00:32:19;95985.19;;;-0.75;100.00
9277;BME280;4676;42.678;23.244;2024-01-30T00:34:46;95987.41;;;-0.82;100.00
9277;BME280;4676;42.678;23.244;2024-01-30T00:37:13;95985.81;;;-0.80;100.00
9277;BME280;4676;42.678;23.244;2024-01-30T00:39:39;95984.56;;;-0.93;100.00
9277;BME280;4676;42.678;23.244;2024-01-30T00:42:07;95979.53;;;-0.94;100.00
9277;BME280;4676;42.678;23.244;2024-01-30T00:44:35;95991.59;;;-1.05;100.00
9277;BME280;4676;42.678;23.244;2024-01-30T00:47:02;95981.88;;;-0.99;100.00
9277;BME280;4676;42.678;23.244;2024-01-30T00:49:29;95974.28;;;-1.02;100.00
9277;BME280;4676;42.678;23.244;2024-01-30T00:51:56;95982.66;;;-1.00;100.00
9277;BME280;4676;42.678;23.244;2024-01-30T00:54:22;95985.91;;;-1.03;100.00
9277;BME280;4676;42.678;23.244;2024-01-30T00:56:49;95979.59;;;-0.93;100.00
9277;BME280;4676;42.678;23.244;2024-01-30T00:59:17;95976.94;;;-0.97;100.00
9277;BME280;4676;42.678;23.244;2024-01-30T01:01:44;95977.88;;;-0.94;100.00
9277;BME280;4676;42.678;23.244;2024-01-30T01:04:10;95977.78;;;-0.97;100.00
9277;BME280;4676;42.678;23.244;2024-01-30T01:06:37;95982.66;;;-1.00;100.00
9277;BME280;4676;42.678;23.244;2024-01-30T01:09:04;95984.41;;;-0.97;100.00
9277;BME280;4676;42.678;23.244;2024-01-30T01:11:30;95980.63;;;-0.86;100.00
9277;BME280;4676;42.678;23.244;2024-01-30T01:13:57;95969.44;;;-0.74;100.00
9277;BME280;4676;42.678;23.244;2024-01-30T01:16:25;95972.84;;;-0.72;100.00
9277;BME280;4676;42.678;23.244;2024-01-30T01:18:52;95972.03;;;-0.71;100.00
9277;BME280;4676;42.678;23.244;2024-01-30T01:21:18;95977.50;;;-0.81;100.00
9277;BME280;4676;42.678;23.244;2024-01-30T01:23:45;95973.22;;;-0.85;100.00
9277;BME280;4676;42.678;23.244;2024-01-30T01:26:12;95977.13;;;-0.91;100.00
9277;BME280;4676;42.678;23.244;2024-01-30T01:28:40;95981.16;;;-0.95;100.00
9277;BME280;4676;42.678;23.244;2024-01-30T01:31:07;95982.09;;;-0.91;100.00
9277;BME280;4676;42.678;23.244;2024-01-30T01:33:35;95977.88;;;-0.94;100.00
9277;BME280;4676;42.678;23.244;2024-01-30T01:36:03;95970.63;;;-0.88;100.00
9277;BME280;4676;42.678;23.244;2024-01-30T01:38:30;95983.63;;;-0.96;100.00
9277;BME280;4676;42.678;23.244;2024-01-30T01:40:57;95978.63;;;-0.96;100.00
9277;BME280;4676;42.678;23.244;2024-01-30T01:43:23;95986.25;;;-0.92;100.00
9277;BME280;4676;42.678;23.244;2024-01-30T01:45:50;95981.91;;;-0.97;100.00
9277;BME280;4676;42.678;23.244;2024-01-30T01:48:17;95975.34;;;-0.95;100.00
9277;BME280;4676;42.678;23.244;2024-01-30T01:50:45;95977.69;;;-1.00;100.00
9277;BME280;4676;42.678;23.244;2024-01-30T01:53:12;95976.09;;;-0.98;100.00
9277;BME280;4676;42.678;23.244;2024-01-30T01:55:39;95975.19;;;-1.00;100.00
9277;BME280;4676;42.678;23.244;2024-01-30T01:58:07;95952.84;;;-1.22;100.00
9277;BME280;4676;42.678;23.244;2024-01-30T02:00:34;95985.78;;;-1.29;100.00
9277;BME280;4676;42.678;23.244;2024-01-30T02:03:05;95981.09;;;-1.44;100.00
9277;BME280;4676;42.678;23.244;2024-01-30T02:05:32;95989.03;;;-1.54;100.00
9277;BME280;4676;42.678;23.244;2024-01-30T02:08:01;95986.41;;;-1.59;100.00
9277;BME280;4676;42.678;23.244;2024-01-30T02:10:28;95986.09;;;-1.66;100.00
9277;BME280;4676;42.678;23.244;2024-01-30T02:12:55;95989.44;;;-1.66;100.00
9277;BME280;4676;42.678;23.244;2024-01-30T02:15:21;95995.38;;;-1.62;100.00
9277;BME280;4676;42.678;23.244;2024-01-30T02:17:48;95986.97;;;-1.66;100.00
9277;BME280;4676;42.678;23.244;2024-01-30T02:20:15;95992.91;;;-1.62;100.00
9277;BME280;4676;42.678;23.244;2024-01-30T02:22:43;95986.50;;;-1.56;100.00
9277;BME280;4676;42.678;23.244;2024-01-30T02:25:10;95979.25;;;-1.49;100.00
9277;BME280;4676;42.678;23.244;2024-01-30T02:27:37;95986.91;;;-1.43;100.00
9277;BME280;4676;42.678;23.244;2024-01-30T02:30:04;95986.25;;;-1.39;100.00
9277;BME280;4676;42.678;23.244;2024-01-30T02:32:31;95983.06;;;-1.35;100.00
9277;BME280;4676;42.678;23.244;2024-01-30T02:34:58;95976.84;;;-1.24;100.00
9277;BME280;4676;42.678;23.244;2024-01-30T02:37:25;95980.91;;;-1.26;100.00
9277;BME280;4676;42.678;23.244;2024-01-30T02:39:53;95979.91;;;-1.31;100.00
9277;BME280;4676;42.678;23.244;2024-01-30T02:42:19;95974.97;;;-1.30;100.00
9277;BME280;4676;42.678;23.244;2024-01-30T02:44:46;95984.88;;;-1.31;100.00
9277;BME280;4676;42.678;23.244;2024-01-30T02:47:13;95978.47;;;-1.25;100.00
9277;BME280;4676;42.678;23.244;2024-01-30T02:49:40;95982.66;;;-1.24;100.00
9277;BME280;4676;42.678;23.244;2024-01-30T02:52:06;95970.13;;;-1.27;100.00
9277;BME280;4676;42.678;23.244;2024-01-30T02:54:33;95985.09;;;-1.25;100.00
9277;BME280;4676;42.678;23.244;2024-01-30T02:57:01;95981.81;;;-1.24;100.00
9277;BME280;4676;42.678;23.244;2024-01-30T02:59:28;95977.63;;;-1.25;100.00
9277;BME280;4676;42.678;23.244;2024-01-30T03:01:54;95976.19;;;-1.19;100.00
9277;BME280;4676;42.678;23.244;2024-01-30T03:04:21;95975.16;;;-1.25;100.00
9277;BME280;4676;42.678;23.244;2024-01-30T03:06:48;95972.94;;;-1.18;100.00
9277;BME280;4676;42.678;23.244;2024-01-30T03:09:16;95974.53;;;-1.20;100.00
9277;BME280;4676;42.678;23.244;2024-01-30T03:11:42;95968.13;;;-1.13;100.00
9277;BME280;4676;42.678;23.244;2024-01-30T03:14:11;95969.69;;;-1.15;100.00
9277;BME280;4676;42.678;23.244;2024-01-30T03:16:37;95953.72;;;-1.22;100.00
9277;BME280;4676;42.678;23.244;2024-01-30T03:19:05;95972.34;;;-1.11;100.00
9277;BME280;4676;42.678;23.244;2024-01-30T03:21:33;95974.66;;;-1.15;100.00
9277;BME280;4676;42.678;23.244;2024-01-30T03:23:59;95938.41;;;-1.32;100.00
9277;BME280;4676;42.678;23.244;2024-01-30T03:26:26;95969.94;;;-1.08;100.00
9277;BME280;4676;42.678;23.244;2024-01-30T03:28:53;95974.03;;;-1.10;100.00
9277;BME280;4676;42.678;23.244;2024-01-30T03:31:21;95974.66;;;-1.15;100.00
9277;BME280;4676;42.678;23.244;2024-01-30T03:33:48;95967.09;;;-1.18;100.00
9277;BME280;4676;42.678;23.244;2024-01-30T03:36:15;95866.66;;;-1.71;100.00
9277;BME280;4676;42.678;23.244;2024-01-30T03:38:42;95955.88;;;-1.07;100.00
9277;BME280;4676;42.678;23.244;2024-01-30T03:41:09;95960.41;;;-1.19;100.00
9277;BME280;4676;42.678;23.244;2024-01-30T03:43:36;95964.31;;;-1.27;100.00
9277;BME280;4676;42.678;23.244;2024-01-30T03:46:03;95963.50;;;-1.26;100.00
9277;BME280;4676;42.678;23.244;2024-01-30T03:48:31;95961.00;;;-1.26;100.00
9277;BME280;4676;42.678;23.244;2024-01-30T03:50:58;95964.88;;;-1.11;100.00
9277;BME280;4676;42.678;23.244;2024-01-30T03:53:25;95957.25;;;-1.15;100.00
9277;BME280;4676;42.678;23.244;2024-01-30T03:55:51;95954.16;;;-1.10;100.00
9277;BME280;4676;42.678;23.244;2024-01-30T03:58:18;95921.13;;;-1.29;99.24
9277;BME280;4676;42.678;23.244;2024-01-30T04:00:44;95947.72;;;-1.03;99.50
9277;BME280;4676;42.678;23.244;2024-01-30T04:03:11;95945.59;;;-0.92;98.72
9277;BME280;4676;42.678;23.244;2024-01-30T04:05:39;95949.13;;;-0.86;98.13
9277;BME280;4676;42.678;23.244;2024-01-30T04:08:07;95921.94;;;-1.05;97.93
9277;BME280;4676;42.678;23.244;2024-01-30T04:10:33;95951.56;;;-0.87;96.68
9277;BME280;4676;42.678;23.244;2024-01-30T04:13:00;95950.97;;;-0.80;97.73
9277;BME280;4676;42.678;23.244;2024-01-30T04:15:27;95947.28;;;-0.91;96.48
9277;BME280;4676;42.678;23.244;2024-01-30T04:17:57;95947.72;;;-1.03;94.74
9277;BME280;4676;42.678;23.244;2024-01-30T04:20:24;95950.97;;;-1.06;96.28
9277;BME280;4676;42.678;23.244;2024-01-30T04:22:52;95949.41;;;-1.02;96.57
9277;BME280;4676;42.678;23.244;2024-01-30T04:25:19;95954.88;;;-1.12;96.04
9277;BME280;4676;42.678;23.244;2024-01-30T04:27:46;95958.31;;;-1.09;97.20
9277;BME280;4676;42.678;23.244;2024-01-30T04:30:13;95959.16;;;-1.08;97.78
9277;BME280;4676;42.678;23.244;2024-01-30T04:32:43;95960.66;;;-1.13;97.42
9277;BME280;4676;42.678;23.244;2024-01-30T04:35:10;95956.63;;;-1.10;97.74
9277;BME280;4676;42.678;23.244;2024-01-30T04:37:36;95954.94;;;-1.11;97.52
9277;BME280;4676;42.678;23.244;2024-01-30T04:40:06;95959.97;;;-1.09;96.83
9277;BME280;4676;42.678;23.244;2024-01-30T04:42:33;95969.06;;;-1.10;97.76
9277;BME280;4676;42.678;23.244;2024-01-30T04:45:00;95966.41;;;-1.14;97.71
9277;BME280;4676;42.678;23.244;2024-01-30T04:47:27;95972.75;;;-1.22;97.14
9277;BME280;4676;42.678;23.244;2024-01-30T04:49:55;95970.44;;;-1.18;97.61
9277;BME280;4676;42.678;23.244;2024-01-30T04:52:21;95977.16;;;-1.15;97.61
9277;BME280;4676;42.678;23.244;2024-01-30T04:54:48;95982.03;;;-1.18;98.22
9277;BME280;4676;42.678;23.244;2024-01-30T04:57:16;95987.75;;;-1.21;98.78
9277;BME280;4676;42.678;23.244;2024-01-30T04:59:43;95991.19;;;-1.41;98.12
9277;BME280;4676;42.678;23.244;2024-01-30T05:02:09;95989.66;;;-1.37;99.94
9277;BME280;4676;42.678;23.244;2024-01-30T05:04:36;95996.88;;;-1.43;100.00
9277;BME280;4676;42.678;23.244;2024-01-30T05:07:03;95985.97;;;-1.47;100.00
9277;BME280;4676;42.678;23.244;2024-01-30T05:09:30;95996.94;;;-1.42;100.00
9277;BME280;4676;42.678;23.244;2024-01-30T05:11:56;95996.09;;;-1.42;100.00
9277;BME280;4676;42.678;23.244;2024-01-30T05:14:24;95992.72;;;-1.44;100.00
9277;BME280;4676;42.678;23.244;2024-01-30T05:16:51;95995.81;;;-1.50;100.00
9277;BME280;4676;42.678;23.244;2024-01-30T05:19:18;95998.81;;;-1.59;100.00
9277;BME280;4676;42.678;23.244;2024-01-30T05:21:45;95998.97;;;-1.54;100.00
9277;BME280;4676;42.678;23.244;2024-01-30T05:24:12;95996.66;;;-1.49;100.00
9277;BME280;4676;42.678;23.244;2024-01-30T05:26:39;96003.25;;;-1.50;100.00
9277;BME280;4676;42.678;23.244;2024-01-30T05:29:06;95999.59;;;-1.60;100.00
9277;BME280;4676;42.678;23.244;2024-01-30T05:31:34;95992.75;;;-1.65;100.00
9277;BME280;4676;42.678;23.244;2024-01-30T05:34:01;95984.13;;;-1.75;100.00
9277;BME280;4676;42.678;23.244;2024-01-30T05:36:27;96000.16;;;-1.67;100.00
9277;BME280;4676;42.678;23.244;2024-01-30T05:38:55;96002.84;;;-1.62;100.00
9277;BME280;4676;42.678;23.244;2024-01-30T05:41:22;96000.16;;;-1.67;100.00
9277;BME280;4676;42.678;23.244;2024-01-30T05:43:49;95995.31;;;-1.64;100.00
9277;BME280;4676;42.678;23.244;2024-01-30T05:46:16;96001.31;;;-1.59;100.00
9277;BME280;4676;42.678;23.244;2024-01-30T05:48:44;95990.44;;;-1.61;100.00
9277;BME280;4676;42.678;23.244;2024-01-30T05:51:10;95995.97;;;-1.68;100.00
9277;BME280;4676;42.678;23.244;2024-01-30T05:53:37;95994.81;;;-1.77;100.00
9277;BME280;4676;42.678;23.244;2024-01-30T05:56:05;95991.41;;;-1.79;100.00
9277;BME280;4676;42.678;23.244;2024-01-30T05:58:31;95988.97;;;-1.78;100.00
9277;BME280;4676;42.678;23.244;2024-01-30T06:00:58;95995.28;;;-1.86;100.00
9277;BME280;4676;42.678;23.244;2024-01-30T06:03:25;95994.59;;;-1.83;100.00
9277;BME280;4676;42.678;23.244;2024-01-30T06:05:53;95992.53;;;-1.71;100.00
9277;BME280;4676;42.678;23.244;2024-01-30T06:08:19;95995.38;;;-1.62;100.00
9277;BME280;4676;42.678;23.244;2024-01-30T06:10:46;95995.09;;;-1.70;100.00
9277;BME280;4676;42.678;23.244;2024-01-30T06:13:13;95998.34;;;-1.71;100.00
9277;BME280;4676;42.678;23.244;2024-01-30T06:15:39;95994.13;;;-1.73;100.00
9277;BME280;4676;42.678;23.244;2024-01-30T06:18:06;96000.25;;;-1.86;100.00
9277;BME280;4676;42.678;23.244;2024-01-30T06:20:33;96003.16;;;-1.75;100.00
9277;BME280;4676;42.678;23.244;2024-01-30T06:23:02;95998.63;;;-1.85;100.00
9277;BME280;4676;42.678;23.244;2024-01-30T06:25:28;96003.59;;;-1.85;100.00
9277;BME280;4676;42.678;23.244;2024-01-30T06:27:55;96005.34;;;-1.83;100.00
9277;BME280;4676;42.678;23.244;2024-01-30T06:30:22;96003.16;;;-1.75;100.00
9277;BME280;4676;42.678;23.244;2024-01-30T06:32:49;96004.41;;;-1.64;99.26
9277;BME280;4676;42.678;23.244;2024-01-30T06:35:16;96009.72;;;-1.55;97.12
9277;BME280;4676;42.678;23.244;2024-01-30T06:37:43;96011.28;;;-1.57;96.25
9277;BME280;4676;42.678;23.244;2024-01-30T06:40:12;96016.63;;;-1.48;95.71
9277;BME280;4676;42.678;23.244;2024-01-30T06:42:38;96008.50;;;-1.42;96.24
9277;BME280;4676;42.678;23.244;2024-01-30T06:45:06;96006.59;;;-1.27;95.79
9277;BME280;4676;42.678;23.244;2024-01-30T06:47:33;96004.38;;;-1.20;93.49
9277;BME280;4676;42.678;23.244;2024-01-30T06:49:59;96008.91;;;-1.08;92.72
9277;BME280;4676;42.678;23.244;2024-01-30T06:52:27;96011.25;;;-1.13;90.36
9277;BME280;4676;42.678;23.244;2024-01-30T06:54:54;96012.31;;;-1.06;90.51
9277;BME280;4676;42.678;23.244;2024-01-30T06:57:22;96014.34;;;-0.94;89.27
9277;BME280;4676;42.678;23.244;2024-01-30T06:59:49;96019.78;;;-0.82;89.62
9277;BME280;4676;42.678;23.244;2024-01-30T07:02:38;96022.66;;;-0.70;85.81
9277;BME280;4676;42.678;23.244;2024-01-30T07:05:04;95982.44;;;-0.82;86.13
9277;BME280;4676;42.678;23.244;2024-01-30T07:07:31;96012.81;;;-0.67;86.45
9277;BME280;4676;42.678;23.244;2024-01-30T07:09:58;96013.38;;;-0.51;85.54
9277;BME280;4676;42.678;23.244;2024-01-30T07:12:26;96009.09;;;-0.55;84.23
9277;BME280;4676;42.678;23.244;2024-01-30T07:14:53;96010.44;;;-0.39;86.38
9277;BME280;4676;42.678;23.244;2024-01-30T07:17:21;96008.59;;;-0.44;79.74
9277;BME280;4676;42.678;23.244;2024-01-30T07:19:48;96004.44;;;-0.44;80.34
9277;BME280;4676;42.678;23.244;2024-01-30T07:22:15;96015.88;;;-0.25;79.80
9277;BME280;4676;42.678;23.244;2024-01-30T07:24:42;96024.03;;;-0.29;76.61
9277;BME280;4676;42.678;23.244;2024-01-30T07:27:12;96025.59;;;-0.31;75.59
9277;BME280;4676;42.678;23.244;2024-01-30T07:29:40;96021.09;;;-0.18;77.29
9277;BME280;4676;42.678;23.244;2024-01-30T07:32:07;96016.28;;;-0.12;75.17
9277;BME280;4676;42.678;23.244;2024-01-30T07:34:33;96024.75;;;-0.07;75.77
9277;BME280;4676;42.678;23.244;2024-01-30T07:37:01;96018.19;;;-0.03;75.38
9277;BME280;4676;42.678;23.244;2024-01-30T07:39:28;96018.19;;;-0.05;75.27
9277;BME280;4676;42.678;23.244;2024-01-30T07:41:55;96017.31;;;-0.05;75.72
9277;BME280;4676;42.678;23.244;2024-01-30T07:44:22;96007.69;;;0.06;76.16
9277;BME280;4676;42.678;23.244;2024-01-30T07:46:50;96017.75;;;0.09;73.56
9277;BME280;4676;42.678;23.244;2024-01-30T07:49:17;96009.50;;;0.11;72.80
9277;BME280;4676;42.678;23.244;2024-01-30T07:51:43;95992.78;;;-0.20;73.42
9277;BME280;4676;42.678;23.244;2024-01-30T07:54:16;96005.13;;;-0.23;72.64
9277;BME280;4676;42.678;23.244;2024-01-30T07:56:43;96007.34;;;-0.32;74.39
9277;BME280;4676;42.678;23.244;2024-01-30T07:59:10;96009.34;;;-0.22;74.20
9277;BME280;4676;42.678;23.244;2024-01-30T08:01:37;96009.78;;;-0.07;73.86
9277;BME280;4676;42.678;23.244;2024-01-30T08:04:05;96003.13;;;-0.08;72.56
9277;BME280;4676;42.678;23.244;2024-01-30T08:06:32;95994.72;;;-0.11;72.36
9277;BME280;4676;42.678;23.244;2024-01-30T08:08:59;95999.19;;;-0.01;73.14
9277;BME280;4676;42.678;23.244;2024-01-30T08:11:26;96005.19;;;0.06;74.55
9277;BME280;4676;42.678;23.244;2024-01-30T08:13:54;96008.66;;;0.11;73.67
9277;BME280;4676;42.678;23.244;2024-01-30T08:16:21;96007.94;;;0.15;72.54
9277;BME280;4676;42.678;23.244;2024-01-30T08:18:48;96004.91;;;0.23;73.21
9277;BME280;4676;42.678;23.244;2024-01-30T08:21:16;96001.38;;;0.17;71.08
9277;BME280;4676;42.678;23.244;2024-01-30T08:23:43;96001.94;;;0.08;70.15
9277;BME280;4676;42.678;23.244;2024-01-30T08:26:10;96003.41;;;0.02;71.27
9277;BME280;4676;42.678;23.244;2024-01-30T08:28:36;96002.56;;;0.01;71.35
9277;BME280;4676;42.678;23.244;2024-01-30T08:31:03;96015.19;;;0.07;72.18
9277;BME280;4676;42.678;23.244;2024-01-30T08:33:30;96009.25;;;0.02;70.90
9277;BME280;4676;42.678;23.244;2024-01-30T08:35:57;96000.06;;;0.01;71.08
9277;BME280;4676;42.678;23.244;2024-01-30T08:38:25;95999.69;;;0.16;71.67
9277;BME280;4676;42.678;23.244;2024-01-30T08:40:52;96015.03;;;0.28;71.92
9277;BME280;4676;42.678;23.244;2024-01-30T08:43:19;96009.66;;;0.44;72.21
9277;BME280;4676;42.678;23.244;2024-01-30T08:45:46;96009.00;;;0.49;70.19
9277;BME280;4676;42.678;23.244;2024-01-30T08:48:13;96013.88;;;0.75;69.82
9277;BME280;4676;42.678;23.244;2024-01-30T08:50:39;96011.03;;;0.91;67.80
9277;BME280;4676;42.678;23.244;2024-01-30T08:53:06;96017.72;;;0.64;66.30
9277;BME280;4676;42.678;23.244;2024-01-30T08:55:34;96015.38;;;0.40;68.57
9277;BME280;4676;42.678;23.244;2024-01-30T08:58:01;96018.34;;;0.57;70.72
9277;BME280;4676;42.678;23.244;2024-01-30T09:00:30;96024.94;;;0.55;69.93
9277;BME280;4676;42.678;23.244;2024-01-30T09:02:56;96022.75;;;0.37;72.06
9277;BME280;4676;42.678;23.244;2024-01-30T09:05:23;96024.47;;;0.11;74.92
9277;BME280;4676;42.678;23.244;2024-01-30T09:07:50;96030.38;;;0.15;76.90
9277;BME280;4676;42.678;23.244;2024-01-30T09:10:16;96029.53;;;0.41;77.68
9277;BME280;4676;42.678;23.244;2024-01-30T09:12:45;96027.88;;;0.70;77.45
9277;BME280;4676;42.678;23.244;2024-01-30T09:15:11;96028.22;;;0.52;71.62
9277;BME280;4676;42.678;23.244;2024-01-30T09:17:38;96026.41;;;0.48;73.22
9277;BME280;4676;42.678;23.244;2024-01-30T09:20:06;96021.34;;;0.45;75.40
9277;BME280;4676;42.678;23.244;2024-01-30T09:22:33;96015.13;;;0.59;76.74
9277;BME280;4676;42.678;23.244;2024-01-30T09:25:00;96018.88;;;0.75;79.04
9277;BME280;4676;42.678;23.244;2024-01-30T09:27:26;96018.25;;;0.82;76.88
9277;BME280;4676;42.678;23.244;2024-01-30T09:29:55;95995.31;;;0.65;76.94
9277;BME280;4676;42.678;23.244;2024-01-30T09:32:21;96010.34;;;0.67;78.54
9277;BME280;4676;42.678;23.244;2024-01-30T09:34:48;96005.06;;;0.56;78.25
9277;BME280;4676;42.678;23.244;2024-01-30T09:37:14;96003.59;;;0.36;78.41
9277;BME280;4676;42.678;23.244;2024-01-30T09:39:43;96009.22;;;0.29;81.14
9277;BME280;4676;42.678;23.244;2024-01-30T09:42:18;96001.38;;;0.17;79.79
9277;BME280;4676;42.678;23.244;2024-01-30T09:44:50;96004.59;;;0.13;79.91
9277;BME280;4676;42.678;23.244;2024-01-30T09:47:19;96003.50;;;0.05;81.46
9277;BME280;4676;42.678;23.244;2024-01-30T09:49:46;95996.44;;;0.18;82.77
9277;BME280;4676;42.678;23.244;2024-01-30T09:52:14;95995.56;;;0.18;77.99
9277;BME280;4676;42.678;23.244;2024-01-30T09:54:41;95988.00;;;0.15;79.90
9277;BME280;4676;42.678;23.244;2024-01-30T09:57:08;95989.88;;;0.22;79.61
9277;BME280;4676;42.678;23.244;2024-01-30T09:59:35;95988.31;;;0.52;79.22
9277;BME280;4676;42.678;23.244;2024-01-30T10:02:01;95996.00;;;0.60;76.36
9277;BME280;4676;42.678;23.244;2024-01-30T10:04:31;95992.44;;;0.52;76.21
9277;BME280;4676;42.678;23.244;2024-01-30T10:06:57;95994.09;;;0.51;76.86
9277;BME280;4676;42.678;23.244;2024-01-30T10:09:26;95993.19;;;0.49;77.21
9277;BME280;4676;42.678;23.244;2024-01-30T10:11:53;95983.47;;;0.58;77.18
9277;BME280;4676;42.678;23.244;2024-01-30T10:14:20;95986.97;;;0.65;74.39
9277;BME280;4676;42.678;23.244;2024-01-30T10:16:47;95982.72;;;0.61;75.03
9277;BME280;4676;42.678;23.244;2024-01-30T10:19:13;95983.94;;;0.75;74.95
9277;BME280;4676;42.678;23.244;2024-01-30T10:21:42;95979.84;;;0.77;74.62
9277;BME280;4676;42.678;23.244;2024-01-30T10:24:10;95979.44;;;0.93;72.39
9277;BME280;4676;42.678;23.244;2024-01-30T10:26:38;95938.66;;;0.61;72.33
9277;BME280;4676;42.678;23.244;2024-01-30T10:29:05;95986.28;;;1.00;72.42
9277;BME280;4676;42.678;23.244;2024-01-30T10:31:31;95985.00;;;1.14;71.70
9277;BME280;4676;42.678;23.244;2024-01-30T10:33:58;95978.16;;;1.07;73.13
9277;BME280;4676;42.678;23.244;2024-01-30T10:36:28;95966.75;;;0.84;70.32
9277;BME280;4676;42.678;23.244;2024-01-30T10:38:59;95982.72;;;0.90;72.57
9277;BME280;4676;42.678;23.244;2024-01-30T10:41:26;95983.84;;;1.02;72.84
9277;BME280;4676;42.678;23.244;2024-01-30T10:44:01;95989.22;;;0.85;71.19
9277;BME280;4676;42.678;23.244;2024-01-30T10:46:31;95981.63;;;0.81;71.72
9277;BME280;4676;42.678;23.244;2024-01-30T10:48:59;95978.38;;;0.83;72.30
9277;BME280;4676;42.678;23.244;2024-01-30T10:51:27;95950.41;;;0.95;72.83
9277;BME280;4676;42.678;23.244;2024-01-30T10:53:54;95941.09;;;0.89;70.84
9277;BME280;4676;42.678;23.244;2024-01-30T10:56:23;95963.25;;;1.09;71.08
9277;BME280;4676;42.678;23.244;2024-01-30T10:58:51;95960.34;;;0.93;70.67
9277;BME280;4676;42.678;23.244;2024-01-30T11:01:18;95957.50;;;1.13;70.79
9277;BME280;4676;42.678;23.244;2024-01-30T11:03:48;95951.41;;;1.02;70.67
9277;BME280;4676;42.678;23.244;2024-01-30T11:06:18;95953.59;;;1.22;70.86
9277;BME280;4676;42.678;23.244;2024-01-30T11:08:45;95942.63;;;1.50;69.85
9277;BME280;4676;42.678;23.244;2024-01-30T11:11:12;95944.22;;;1.48;69.38
9277;BME280;4676;42.678;23.244;2024-01-30T11:13:40;95939.50;;;1.24;69.11
9277;BME280;4676;42.678;23.244;2024-01-30T11:16:11;95947.97;;;1.31;71.07
9277;BME280;4676;42.678;23.244;2024-01-30T11:18:38;95937.78;;;1.22;70.71
9277;BME280;4676;42.678;23.244;2024-01-30T11:21:04;95939.09;;;1.42;71.07
9277;BME280;4676;42.678;23.244;2024-01-30T11:23:36;95947.50;;;1.44;70.76
9277;BME280;4676;42.678;23.244;2024-01-30T11:26:10;95942.63;;;1.50;71.67
9277;BME280;4676;42.678;23.244;2024-01-30T11:28:37;95944.34;;;1.52;68.44
9277;BME280;4676;42.678;23.244;2024-01-30T11:31:06;95928.88;;;1.67;68.06
9277;BME280;4676;42.678;23.244;2024-01-30T11:33:33;95948.94;;;1.70;67.61
9277;BME280;4676;42.678;23.244;2024-01-30T11:36:01;95935.50;;;1.65;68.55
9277;BME280;4676;42.678;23.244;2024-01-30T11:38:28;95930.34;;;1.59;67.41
9277;BME280;4676;42.678;23.244;2024-01-30T11:40:55;95943.38;;;1.82;68.44
9277;BME280;4676;42.678;23.244;2024-01-30T11:43:23;95946.25;;;1.98;68.04
9277;BME280;4676;42.678;23.244;2024-01-30T11:45:50;95921.69;;;1.79;66.66
9277;BME280;4676;42.678;23.244;2024-01-30T11:48:18;95935.09;;;1.84;67.12
9277;BME280;4676;42.678;23.244;2024-01-30T11:50:45;95933.75;;;1.63;68.60
9277;BME280;4676;42.678;23.244;2024-01-30T11:53:13;95929.13;;;1.78;68.12
9277;BME280;4676;42.678;23.244;2024-01-30T11:55:39;95933.03;;;2.03;68.22
9277;BME280;4676;42.678;23.244;2024-01-30T11:58:06;95931.13;;;1.92;68.55
9277;BME280;4676;42.678;23.244;2024-01-30T12:00:33;95929.09;;;1.76;68.99
9277;BME280;4676;42.678;23.244;2024-01-30T12:02:59;95910.81;;;1.43;68.68
9277;BME280;4676;42.678;23.244;2024-01-30T12:05:28;95919.38;;;1.18;70.57
9277;BME280;4676;42.678;23.244;2024-01-30T12:07:55;95911.28;;;0.95;72.87
9277;BME280;4676;42.678;23.244;2024-01-30T12:10:24;95908.75;;;0.94;73.10
9277;BME280;4676;42.678;23.244;2024-01-30T12:12:52;95900.69;;;1.04;73.52
9277;BME280;4676;42.678;23.244;2024-01-30T12:15:21;95904.25;;;1.12;72.84
9277;BME280;4676;42.678;23.244;2024-01-30T12:17:48;95890.84;;;1.09;73.19
9277;BME280;4676;42.678;23.244;2024-01-30T12:20:18;95890.78;;;1.07;72.73
9277;BME280;4676;42.678;23.244;2024-01-30T12:22:47;95891.13;;;1.21;73.07
9277;BME280;4676;42.678;23.244;2024-01-30T12:25:15;95894.06;;;1.39;72.32
9277;BME280;4676;42.678;23.244;2024-01-30T12:27:43;95883.59;;;1.55;72.45
9277;BME280;4676;42.678;23.244;2024-01-30T12:30:11;95891.75;;;1.46;70.68
9277;BME280;4676;42.678;23.244;2024-01-30T12:32:41;95876.22;;;1.24;70.44
9277;BME280;4676;42.678;23.244;2024-01-30T12:35:09;95881.03;;;1.50;70.62
9277;BME280;4676;42.678;23.244;2024-01-30T12:37:36;95880.19;;;1.50;69.93
9277;BME280;4676;42.678;23.244;2024-01-30T12:40:06;95881.97;;;1.56;69.04
9277;BME280;4676;42.678;23.244;2024-01-30T12:42:33;95877.38;;;1.74;69.39
9277;BME280;4676;42.678;23.244;2024-01-30T12:45:01;95877.44;;;1.77;68.84
9277;BME280;4676;42.678;23.244;2024-01-30T12:47:28;95877.59;;;1.83;68.85
9277;BME280;4676;42.678;23.244;2024-01-30T12:49:55;95878.28;;;1.76;68.87
9277;BME280;4676;42.678;23.244;2024-01-30T12:52:22;95852.38;;;1.72;67.83
9277;BME280;4676;42.678;23.244;2024-01-30T12:54:49;95870.16;;;1.86;67.06
9277;BME280;4676;42.678;23.244;2024-01-30T12:57:18;95871.66;;;1.78;67.80
9277;BME280;4676;42.678;23.244;2024-01-30T12:59:45;95866.06;;;1.89;68.00
9277;BME280;4676;42.678;23.244;2024-01-30T13:02:12;95861.59;;;1.76;67.17
9277;BME280;4676;42.678;23.244;2024-01-30T13:04:39;95861.47;;;1.69;68.30
9277;BME280;4676;42.678;23.244;2024-01-30T13:07:06;95846.91;;;1.52;68.48
9277;BME280;4676;42.678;23.244;2024-01-30T13:09:33;95855.88;;;1.43;68.54